createdAt,value
2017-03-01T00:01:03.778Z,0
2017-03-01T00:02:18.467Z,0
2017-03-01T00:03:33.436Z,0
2017-03-01T00:04:47.722Z,0
2017-03-01T00:06:02.212Z,0
2017-03-01T00:07:16.289Z,0
2017-03-01T00:08:30.834Z,0
2017-03-01T00:09:46.037Z,0
2017-03-01T00:11:00.201Z,0
2017-03-01T00:12:15.396Z,0
2017-03-01T00:13:30.542Z,0
2017-03-01T00:14:45.129Z,0
2017-03-01T00:15:59.510Z,0
2017-03-01T00:17:13.793Z,0
2017-03-01T00:18:28.659Z,0
2017-03-01T00:19:43.158Z,0
2017-03-01T00:20:59.450Z,0
2017-03-01T00:22:16.121Z,0
2017-03-01T00:23:31.532Z,0
2017-03-01T00:24:46.890Z,0
2017-03-01T00:26:02.239Z,0
2017-03-01T00:27:17.053Z,0
2017-03-01T00:28:33.650Z,0
2017-03-01T00:29:48.547Z,0
2017-03-01T00:31:04.306Z,0
2017-03-01T00:32:19.779Z,0
2017-03-01T00:33:35.187Z,0
2017-03-01T00:34:49.957Z,0
2017-03-01T00:36:05.238Z,0
2017-03-01T00:37:21.626Z,0
2017-03-01T00:38:39.510Z,0
2017-03-01T00:39:55.367Z,0
2017-03-01T00:41:09.823Z,0
2017-03-01T00:42:25.252Z,0
2017-03-01T00:43:40.296Z,0
2017-03-01T00:44:55.753Z,0
2017-03-01T00:46:11.336Z,0
2017-03-01T00:47:26.844Z,0
2017-03-01T00:48:41.914Z,0
2017-03-01T00:49:56.743Z,0
2017-03-01T00:51:10.940Z,0
2017-03-01T00:52:26.315Z,0
2017-03-01T00:53:42.146Z,0
2017-03-01T00:54:57.500Z,0
2017-03-01T00:56:13.545Z,0
2017-03-01T00:57:28.787Z,0
2017-03-01T00:58:43.749Z,0
2017-03-01T00:59:59.803Z,0
2017-03-01T01:01:14.529Z,0
2017-03-01T01:02:30.071Z,0
2017-03-01T01:03:44.773Z,0
2017-03-01T01:04:59.131Z,0
2017-03-01T01:06:14.760Z,0
2017-03-01T01:07:30.193Z,0
2017-03-01T01:08:45.080Z,0
2017-03-01T01:10:01.340Z,0
2017-03-01T01:11:19.203Z,0
2017-03-01T01:12:33.344Z,0
2017-03-01T01:13:48.108Z,0
2017-03-01T01:15:04.056Z,0
2017-03-01T01:16:20.232Z,0
2017-03-01T01:17:39.378Z,0
2017-03-01T01:18:54.692Z,0
2017-03-01T01:20:11.244Z,0
2017-03-01T01:21:26.957Z,0
2017-03-01T01:22:42.087Z,0
2017-03-01T01:23:57.663Z,0
2017-03-01T01:25:14.157Z,0
2017-03-01T01:26:29.569Z,0
2017-03-01T01:27:44.436Z,0
2017-03-01T01:29:00.082Z,0
2017-03-01T01:30:14.959Z,0
2017-03-01T01:31:29.382Z,0
2017-03-01T01:32:44.010Z,0
2017-03-01T01:33:58.992Z,0
2017-03-01T01:35:14.350Z,0
2017-03-01T01:36:29.000Z,0
2017-03-01T01:37:45.193Z,0
2017-03-01T01:39:01.031Z,0
2017-03-01T01:40:15.567Z,0
2017-03-01T01:41:30.204Z,0
2017-03-01T01:42:45.749Z,0
2017-03-01T01:43:59.940Z,0
2017-03-01T01:45:27.927Z,0
2017-03-01T01:46:42.751Z,0
2017-03-01T01:47:57.700Z,0
2017-03-01T01:49:12.553Z,0
2017-03-01T01:50:28.077Z,0
2017-03-01T01:51:42.801Z,0
2017-03-01T01:52:58.083Z,0
2017-03-01T01:54:26.948Z,0
2017-03-01T01:55:41.569Z,0
2017-03-01T01:56:58.893Z,0
2017-03-01T01:58:14.192Z,0
2017-03-01T01:59:43.664Z,0
2017-03-01T02:00:57.901Z,0
2017-03-01T02:02:12.670Z,0
2017-03-01T02:03:27.232Z,0
2017-03-01T02:04:41.956Z,0
2017-03-01T02:05:56.077Z,0
2017-03-01T02:07:10.139Z,0
2017-03-01T02:08:25.215Z,0
2017-03-01T02:09:39.414Z,0
2017-03-01T02:10:54.436Z,0
2017-03-01T02:12:11.668Z,0
2017-03-01T02:13:25.786Z,0
2017-03-01T02:14:40.937Z,0
2017-03-01T02:15:54.952Z,0
2017-03-01T02:17:09.318Z,0
2017-03-01T02:18:23.979Z,0
2017-03-01T02:19:38.426Z,0
2017-03-01T02:20:52.721Z,0
2017-03-01T02:22:07.321Z,0
2017-03-01T02:23:21.871Z,0
2017-03-01T02:24:36.008Z,0
2017-03-01T02:25:50.193Z,0
2017-03-01T02:27:05.104Z,0
2017-03-01T02:28:19.175Z,0
2017-03-01T02:29:33.243Z,0
2017-03-01T02:30:47.268Z,0
2017-03-01T02:32:01.550Z,0
2017-03-01T02:33:15.625Z,0
2017-03-01T02:34:29.948Z,0
2017-03-01T02:35:44.540Z,0
2017-03-01T02:36:58.567Z,0
2017-03-01T02:38:12.680Z,0
2017-03-01T02:39:27.996Z,0
2017-03-01T02:40:42.451Z,0
2017-03-01T02:41:56.487Z,0
2017-03-01T02:43:11.031Z,0
2017-03-01T02:44:25.596Z,0
2017-03-01T02:45:40.151Z,0
2017-03-01T02:46:55.099Z,0
2017-03-01T02:48:10.020Z,0
2017-03-01T02:49:24.640Z,0
2017-03-01T02:50:39.198Z,0
2017-03-01T02:51:53.676Z,0
2017-03-01T02:53:07.904Z,0
2017-03-01T02:54:21.885Z,0
2017-03-01T02:55:36.616Z,0
2017-03-01T02:56:51.300Z,0
2017-03-01T02:58:05.399Z,0
2017-03-01T02:59:19.407Z,0
2017-03-01T03:00:33.672Z,0
2017-03-01T03:01:47.932Z,0
2017-03-01T03:03:02.069Z,0
2017-03-01T03:04:16.165Z,0
2017-03-01T03:05:30.703Z,0
2017-03-01T03:06:51.166Z,0
2017-03-01T03:08:05.785Z,0
2017-03-01T03:09:19.807Z,0
2017-03-01T03:10:34.229Z,0
2017-03-01T03:11:48.587Z,0
2017-03-01T03:13:03.281Z,0
2017-03-01T03:14:19.586Z,0
2017-03-01T03:15:34.147Z,0
2017-03-01T03:16:48.799Z,0
2017-03-01T03:18:02.975Z,0
2017-03-01T03:19:17.387Z,0
2017-03-01T03:20:31.405Z,0
2017-03-01T03:21:45.606Z,0
2017-03-01T03:22:59.871Z,0
2017-03-01T03:24:14.038Z,0
2017-03-01T03:25:29.291Z,0
2017-03-01T03:26:43.942Z,0
2017-03-01T03:27:58.124Z,0
2017-03-01T03:29:12.115Z,0
2017-03-01T03:30:26.246Z,0
2017-03-01T03:31:41.016Z,0
2017-03-01T03:33:26.992Z,0
2017-03-01T03:34:41.470Z,0
2017-03-01T03:35:55.912Z,0
2017-03-01T03:37:10.018Z,0
2017-03-01T03:38:24.070Z,0
2017-03-01T03:39:38.468Z,0
2017-03-01T03:40:52.603Z,0
2017-03-01T03:42:07.110Z,0
2017-03-01T03:43:21.088Z,0
2017-03-01T03:44:35.062Z,0
2017-03-01T03:45:49.076Z,0
2017-03-01T03:47:03.164Z,0
2017-03-01T03:48:17.216Z,0
2017-03-01T03:49:32.523Z,0
2017-03-01T03:50:46.579Z,0
2017-03-01T03:52:00.727Z,0
2017-03-01T03:53:14.741Z,0
2017-03-01T03:54:28.867Z,0
2017-03-01T03:55:43.327Z,0
2017-03-01T03:56:57.437Z,0
2017-03-01T03:58:11.632Z,0
2017-03-01T03:59:27.204Z,0
2017-03-01T04:00:41.659Z,0
2017-03-01T04:01:56.098Z,0
2017-03-01T04:03:10.489Z,0
2017-03-01T04:04:24.557Z,0
2017-03-01T04:05:39.282Z,0
2017-03-01T04:06:53.314Z,0
2017-03-01T04:08:07.466Z,0
2017-03-01T04:09:22.006Z,0
2017-03-01T04:12:05.771Z,0
2017-03-01T04:13:19.868Z,0
2017-03-01T04:14:33.930Z,0
2017-03-01T04:15:48.082Z,0
2017-03-01T04:17:02.831Z,0
2017-03-01T04:18:17.680Z,0
2017-03-01T04:19:32.735Z,0
2017-03-01T04:20:46.968Z,0
2017-03-01T04:22:01.169Z,0
2017-03-01T04:23:15.565Z,0
2017-03-01T04:24:29.935Z,0
2017-03-01T04:25:44.580Z,0
2017-03-01T04:26:58.820Z,0
2017-03-01T04:28:13.326Z,0
2017-03-01T04:29:28.004Z,0
2017-03-01T04:30:42.782Z,0
2017-03-01T04:31:56.989Z,0
2017-03-01T04:33:14.083Z,0
2017-03-01T04:34:28.673Z,0
2017-03-01T04:35:43.200Z,0
2017-03-01T04:36:57.356Z,0
2017-03-01T04:38:12.129Z,0
2017-03-01T04:39:26.187Z,0
2017-03-01T04:40:40.397Z,0
2017-03-01T04:41:54.505Z,0
2017-03-01T04:43:10.164Z,0
2017-03-01T04:44:24.281Z,0
2017-03-01T04:45:38.471Z,0
2017-03-01T04:46:52.824Z,0
2017-03-01T04:48:07.031Z,0
2017-03-01T04:49:21.528Z,0
2017-03-01T04:50:36.165Z,0
2017-03-01T04:51:50.770Z,0
2017-03-01T04:53:07.128Z,0
2017-03-01T04:54:22.637Z,0
2017-03-01T04:55:37.687Z,0
2017-03-01T04:56:51.819Z,0
2017-03-01T04:58:07.383Z,0
2017-03-01T04:59:22.357Z,0
2017-03-01T05:00:38.306Z,0
2017-03-01T05:01:52.432Z,0
2017-03-01T05:03:07.078Z,0
2017-03-01T05:04:21.495Z,0
2017-03-01T05:05:36.824Z,0
2017-03-01T05:06:51.609Z,0
2017-03-01T05:08:05.821Z,0
2017-03-01T05:09:20.248Z,0
2017-03-01T05:10:34.766Z,0
2017-03-01T05:11:49.142Z,0
2017-03-01T05:13:03.612Z,0
2017-03-01T05:14:19.167Z,0
2017-03-01T05:15:33.326Z,0
2017-03-01T05:16:47.592Z,0
2017-03-01T05:18:03.556Z,0
2017-03-01T05:19:17.800Z,0
2017-03-01T05:20:33.213Z,0
2017-03-01T05:21:48.878Z,0
2017-03-01T05:23:03.530Z,0
2017-03-01T05:24:18.089Z,0
2017-03-01T05:25:32.750Z,0
2017-03-01T05:26:47.035Z,0
2017-03-01T05:28:01.240Z,0
2017-03-01T05:29:15.456Z,0
2017-03-01T05:30:29.663Z,0
2017-03-01T05:31:43.889Z,0
2017-03-01T05:32:58.617Z,0
2017-03-01T05:34:12.642Z,0
2017-03-01T05:35:26.941Z,0
2017-03-01T05:36:41.074Z,0
2017-03-01T05:37:57.538Z,0
2017-03-01T05:39:12.719Z,0
2017-03-01T05:40:29.038Z,0
2017-03-01T05:41:48.151Z,0
2017-03-01T05:43:07.628Z,0
2017-03-01T05:44:28.902Z,0
2017-03-01T05:45:51.294Z,0
2017-03-01T05:47:11.202Z,0
2017-03-01T05:48:30.243Z,0
2017-03-01T05:49:51.106Z,0
2017-03-01T05:51:18.844Z,0
2017-03-01T05:52:41.188Z,0
2017-03-01T05:54:03.529Z,0
2017-03-01T05:55:23.725Z,0
2017-03-01T05:56:45.330Z,0
2017-03-01T05:58:05.003Z,0
2017-03-01T05:59:23.706Z,0
2017-03-01T06:00:39.602Z,0
2017-03-01T06:01:54.858Z,0
2017-03-01T06:03:09.322Z,0
2017-03-01T06:04:23.843Z,0
2017-03-01T06:05:38.529Z,0
2017-03-01T06:06:52.766Z,0
2017-03-01T06:08:06.847Z,0
2017-03-01T06:09:21.846Z,0
2017-03-01T06:10:35.901Z,0
2017-03-01T06:11:49.966Z,0
2017-03-01T06:13:04.892Z,0
2017-03-01T06:14:19.569Z,0
2017-03-01T06:15:34.062Z,0
2017-03-01T06:16:49.237Z,0
2017-03-01T06:18:04.233Z,5
2017-03-01T06:19:19.948Z,0
2017-03-01T06:20:35.350Z,0
2017-03-01T06:21:50.944Z,0
2017-03-01T06:23:05.976Z,0
2017-03-01T06:24:20.969Z,5
2017-03-01T06:25:35.214Z,5
2017-03-01T06:26:50.333Z,5
2017-03-01T06:28:04.907Z,10
2017-03-01T06:29:19.551Z,10
2017-03-01T06:30:33.578Z,10
2017-03-01T06:31:48.201Z,15
2017-03-01T06:33:03.758Z,15
2017-03-01T06:34:17.788Z,15
2017-03-01T06:35:32.349Z,15
2017-03-01T06:36:46.481Z,10
2017-03-01T06:38:01.083Z,10
2017-03-01T06:39:16.188Z,10
2017-03-01T06:40:30.706Z,10
2017-03-01T06:41:44.796Z,10
2017-03-01T06:42:59.494Z,15
2017-03-01T06:44:13.850Z,20
2017-03-01T06:45:27.987Z,20
2017-03-01T06:46:43.040Z,25
2017-03-01T06:47:57.681Z,25
2017-03-01T06:49:11.743Z,25
2017-03-01T06:50:27.328Z,30
2017-03-01T06:51:41.960Z,40
2017-03-01T06:52:56.107Z,45
2017-03-01T06:54:10.732Z,45
2017-03-01T06:55:26.037Z,45
2017-03-01T06:56:40.134Z,40
2017-03-01T06:57:55.698Z,40
2017-03-01T06:59:09.939Z,40
2017-03-01T07:00:24.559Z,45
2017-03-01T07:01:39.081Z,40
2017-03-01T07:02:53.229Z,55
2017-03-01T07:04:07.295Z,50
2017-03-01T07:05:22.463Z,40
2017-03-01T07:06:38.036Z,35
2017-03-01T07:07:53.012Z,40
2017-03-01T07:09:09.945Z,35
2017-03-01T07:10:24.124Z,35
2017-03-01T07:11:38.716Z,25
2017-03-01T07:12:52.694Z,35
2017-03-01T07:14:06.332Z,45
2017-03-01T07:15:20.514Z,40
2017-03-01T07:16:35.682Z,40
2017-03-01T07:17:50.268Z,45
2017-03-01T07:19:04.836Z,45
2017-03-01T07:20:20.660Z,30
2017-03-01T07:21:35.818Z,35
2017-03-01T07:22:50.527Z,30
2017-03-01T07:24:04.653Z,65
2017-03-01T07:25:18.746Z,90
2017-03-01T07:26:33.767Z,110
2017-03-01T07:27:48.876Z,65
2017-03-01T07:29:04.115Z,45
2017-03-01T07:30:18.837Z,45
2017-03-01T07:31:33.853Z,50
2017-03-01T07:32:49.433Z,50
2017-03-01T07:34:04.952Z,60
2017-03-01T07:35:20.492Z,70
2017-03-01T07:36:35.349Z,50
2017-03-01T07:37:50.126Z,45
2017-03-01T07:39:04.841Z,30
2017-03-01T07:40:19.573Z,30
2017-03-01T07:41:35.104Z,50
2017-03-01T07:42:49.175Z,50
2017-03-01T07:44:04.727Z,55
2017-03-01T07:45:19.048Z,55
2017-03-01T07:46:33.789Z,80
2017-03-01T07:47:47.869Z,80
2017-03-01T07:49:02.716Z,65
2017-03-01T07:50:17.589Z,70
2017-03-01T07:51:32.770Z,85
2017-03-01T07:52:47.540Z,85
2017-03-01T07:54:02.531Z,120
2017-03-01T07:55:18.135Z,145
2017-03-01T07:57:05.184Z,145
2017-03-01T07:58:20.337Z,155
2017-03-01T07:59:34.453Z,130
2017-03-01T08:01:32.855Z,115
2017-03-01T08:02:47.867Z,80
2017-03-01T08:04:02.583Z,60
2017-03-01T08:05:16.834Z,45
2017-03-01T08:06:31.966Z,40
2017-03-01T08:07:46.804Z,45
2017-03-01T08:09:00.893Z,50
2017-03-01T08:10:15.201Z,40
2017-03-01T08:11:29.981Z,25
2017-03-01T08:12:44.639Z,25
2017-03-01T08:13:59.458Z,30
2017-03-01T08:15:14.106Z,30
2017-03-01T08:16:28.290Z,40
2017-03-01T08:17:43.521Z,45
2017-03-01T08:18:57.610Z,75
2017-03-01T08:20:13.270Z,45
2017-03-01T08:21:28.059Z,45
2017-03-01T08:22:42.811Z,40
2017-03-01T08:23:57.703Z,65
2017-03-01T08:25:13.425Z,60
2017-03-01T08:26:27.838Z,60
2017-03-01T08:27:45.174Z,95
2017-03-01T08:29:00.688Z,90
2017-03-01T08:30:15.910Z,75
2017-03-01T08:31:30.572Z,95
2017-03-01T08:32:45.111Z,55
2017-03-01T08:33:59.851Z,75
2017-03-01T08:35:14.871Z,100
2017-03-01T08:36:29.264Z,105
2017-03-01T08:37:43.433Z,110
2017-03-01T08:38:57.914Z,90
2017-03-01T08:40:13.287Z,80
2017-03-01T08:41:27.831Z,75
2017-03-01T08:42:42.123Z,60
2017-03-01T08:43:56.459Z,65
2017-03-01T08:45:11.375Z,65
2017-03-01T08:46:26.565Z,75
2017-03-01T08:47:40.803Z,85
2017-03-01T08:48:56.144Z,70
2017-03-01T08:50:11.311Z,50
2017-03-01T08:51:25.955Z,40
2017-03-01T08:52:41.009Z,50
2017-03-01T08:53:55.831Z,80
2017-03-01T08:55:11.360Z,85
2017-03-01T08:56:25.857Z,60
2017-03-01T08:57:39.986Z,65
2017-03-01T08:58:54.027Z,80
2017-03-01T09:00:09.735Z,100
2017-03-01T09:01:23.826Z,120
2017-03-01T09:02:37.956Z,95
2017-03-01T09:03:52.525Z,140
2017-03-01T09:05:06.560Z,80
2017-03-01T09:06:21.722Z,65
2017-03-01T09:07:36.854Z,70
2017-03-01T09:08:52.121Z,75
2017-03-01T09:10:06.762Z,75
2017-03-01T09:11:20.779Z,70
2017-03-01T09:12:34.994Z,75
2017-03-01T09:13:49.623Z,75
2017-03-01T09:15:04.291Z,75
2017-03-01T09:16:18.379Z,75
2017-03-01T09:17:32.579Z,65
2017-03-01T09:18:47.258Z,65
2017-03-01T09:20:02.354Z,90
2017-03-01T09:21:16.491Z,120
2017-03-01T09:22:31.314Z,105
2017-03-01T09:23:45.958Z,65
2017-03-01T09:25:00.951Z,45
2017-03-01T09:26:15.108Z,55
2017-03-01T09:27:29.743Z,90
2017-03-01T09:28:44.644Z,125
2017-03-01T09:29:59.890Z,135
2017-03-01T09:31:15.104Z,80
2017-03-01T09:32:30.268Z,80
2017-03-01T09:33:44.422Z,80
2017-03-01T09:34:59.986Z,70
2017-03-01T09:36:14.548Z,80
2017-03-01T09:37:29.933Z,65
2017-03-01T09:38:44.449Z,70
2017-03-01T09:39:58.794Z,85
2017-03-01T09:41:14.842Z,115
2017-03-01T09:42:29.642Z,125
2017-03-01T09:43:44.621Z,165
2017-03-01T09:45:01.669Z,155
2017-03-01T09:46:16.885Z,120
2017-03-01T09:47:31.864Z,100
2017-03-01T09:48:47.294Z,80
2017-03-01T09:50:01.584Z,90
2017-03-01T09:51:16.151Z,115
2017-03-01T09:52:30.286Z,125
2017-03-01T09:53:46.833Z,95
2017-03-01T09:55:01.767Z,80
2017-03-01T09:56:16.781Z,110
2017-03-01T09:57:31.520Z,120
2017-03-01T09:58:46.407Z,85
2017-03-01T10:00:00.979Z,70
2017-03-01T10:01:15.499Z,70
2017-03-01T10:02:30.112Z,75
2017-03-01T10:03:44.860Z,90
2017-03-01T10:04:59.538Z,70
2017-03-01T10:06:13.697Z,55
2017-03-01T10:07:27.719Z,105
2017-03-01T10:08:42.371Z,175
2017-03-01T10:09:56.534Z,185
2017-03-01T10:11:11.137Z,160
2017-03-01T10:12:25.305Z,125
2017-03-01T10:13:40.898Z,125
2017-03-01T10:14:54.965Z,155
2017-03-01T10:16:09.754Z,165
2017-03-01T10:17:24.213Z,115
2017-03-01T10:18:38.409Z,95
2017-03-01T10:19:52.585Z,105
2017-03-01T10:21:07.105Z,90
2017-03-01T10:22:21.447Z,65
2017-03-01T10:23:35.692Z,65
2017-03-01T10:24:50.709Z,60
2017-03-01T10:26:05.766Z,75
2017-03-01T10:27:20.555Z,75
2017-03-01T10:28:34.758Z,100
2017-03-01T10:29:49.047Z,100
2017-03-01T10:31:03.700Z,90
2017-03-01T10:32:18.475Z,70
2017-03-01T10:33:33.113Z,70
2017-03-01T10:34:47.800Z,80
2017-03-01T10:36:01.946Z,100
2017-03-01T10:37:16.731Z,125
2017-03-01T10:38:31.395Z,120
2017-03-01T10:39:46.548Z,90
2017-03-01T10:41:01.215Z,80
2017-03-01T10:42:15.452Z,75
2017-03-01T10:43:30.048Z,85
2017-03-01T10:44:45.150Z,80
2017-03-01T10:45:59.272Z,90
2017-03-01T10:47:13.500Z,95
2017-03-01T10:48:28.186Z,110
2017-03-01T10:49:42.658Z,130
2017-03-01T10:50:57.221Z,140
2017-03-01T10:52:11.732Z,120
2017-03-01T10:53:26.657Z,110
2017-03-01T10:54:45.312Z,140
2017-03-01T10:55:59.964Z,145
2017-03-01T10:57:15.107Z,110
2017-03-01T10:58:29.265Z,120
2017-03-01T10:59:43.843Z,85
2017-03-01T11:00:57.861Z,90
2017-03-01T11:02:15.474Z,95
2017-03-01T11:03:30.633Z,150
2017-03-01T11:04:44.668Z,210
2017-03-01T11:06:00.026Z,190
2017-03-01T11:07:14.718Z,200
2017-03-01T11:08:29.343Z,155
2017-03-01T11:09:43.375Z,185
2017-03-01T11:10:57.571Z,195
2017-03-01T11:12:13.290Z,195
2017-03-01T11:13:28.323Z,215
2017-03-01T11:14:43.349Z,220
2017-03-01T11:15:58.892Z,225
2017-03-01T11:17:13.485Z,220
2017-03-01T11:18:28.212Z,205
2017-03-01T11:19:43.250Z,195
2017-03-01T11:21:00.879Z,195
2017-03-01T11:22:16.138Z,200
2017-03-01T11:23:32.103Z,215
2017-03-01T11:24:48.481Z,195
2017-03-01T11:26:03.940Z,180
2017-03-01T11:27:19.217Z,175
2017-03-01T11:28:34.574Z,150
2017-03-01T11:29:49.598Z,145
2017-03-01T11:31:04.085Z,145
2017-03-01T11:32:18.136Z,120
2017-03-01T11:33:33.177Z,100
2017-03-01T11:34:47.204Z,90
2017-03-01T11:36:02.914Z,90
2017-03-01T11:37:17.270Z,70
2017-03-01T11:38:31.724Z,75
2017-03-01T11:39:46.419Z,105
2017-03-01T11:41:01.470Z,90
2017-03-01T11:42:15.739Z,90
2017-03-01T11:43:31.266Z,85
2017-03-01T11:44:46.893Z,110
2017-03-01T11:46:02.802Z,140
2017-03-01T11:47:18.519Z,155
2017-03-01T11:48:34.241Z,210
2017-03-01T11:49:50.076Z,195
2017-03-01T11:51:05.692Z,190
2017-03-01T11:52:21.348Z,195
2017-03-01T11:53:37.192Z,175
2017-03-01T11:54:52.489Z,190
2017-03-01T11:56:06.762Z,195
2017-03-01T11:57:20.842Z,200
2017-03-01T11:58:35.442Z,190
2017-03-01T11:59:50.704Z,195
2017-03-01T12:01:05.823Z,205
2017-03-01T12:02:21.180Z,195
2017-03-01T12:03:35.841Z,220
2017-03-01T12:04:51.166Z,240
2017-03-01T12:06:05.695Z,225
2017-03-01T12:07:20.723Z,230
2017-03-01T12:08:35.124Z,235
2017-03-01T12:09:49.396Z,230
2017-03-01T12:11:04.897Z,220
2017-03-01T12:12:19.010Z,220
2017-03-01T12:13:33.258Z,205
2017-03-01T12:14:47.284Z,200
2017-03-01T12:16:01.868Z,185
2017-03-01T12:17:15.914Z,175
2017-03-01T12:18:30.524Z,185
2017-03-01T12:19:47.463Z,180
2017-03-01T12:21:01.779Z,170
2017-03-01T12:22:16.496Z,150
2017-03-01T12:23:30.703Z,135
2017-03-01T12:24:45.538Z,150
2017-03-01T12:26:00.113Z,155
2017-03-01T12:27:14.960Z,165
2017-03-01T12:28:29.471Z,165
2017-03-01T12:29:43.711Z,150
2017-03-01T12:30:58.770Z,155
2017-03-01T12:32:13.999Z,165
2017-03-01T12:33:30.999Z,170
2017-03-01T12:34:45.774Z,160
2017-03-01T12:36:00.425Z,145
2017-03-01T12:37:15.619Z,150
2017-03-01T12:38:31.267Z,145
2017-03-01T12:39:47.012Z,130
2017-03-01T12:41:02.170Z,120
2017-03-01T12:42:18.972Z,120
2017-03-01T12:43:34.030Z,120
2017-03-01T12:44:49.401Z,125
2017-03-01T12:46:03.627Z,130
2017-03-01T12:47:20.023Z,130
2017-03-01T12:48:34.837Z,130
2017-03-01T12:49:50.679Z,135
2017-03-01T12:51:05.107Z,135
2017-03-01T12:52:20.743Z,135
